createdAt,value
2019-02-14T00:00:32.116Z,13.97
2019-02-14T00:03:00.868Z,13.07
2019-02-14T00:05:29.842Z,13.27
2019-02-14T00:07:58.683Z,12.13
2019-02-14T00:10:27.459Z,12.87
2019-02-14T00:12:56.197Z,12.30
2019-02-14T00:15:24.915Z,14.03
2019-02-14T00:17:53.631Z,13.87
2019-02-14T00:20:22.479Z,14.40
2019-02-14T00:22:51.241Z,12.83
2019-02-14T00:25:19.948Z,13.37
2019-02-14T00:27:48.672Z,10.53
2019-02-14T00:30:17.360Z,12.03
2019-02-14T00:32:46.086Z,11.40
2019-02-14T00:35:14.895Z,12.00
2019-02-14T00:37:43.612Z,12.50
2019-02-14T00:40:12.331Z,10.10
2019-02-14T00:42:41.069Z,11.20
2019-02-14T00:45:09.805Z,11.40
2019-02-14T00:47:38.526Z,11.83
2019-02-14T00:50:07.295Z,10.37
2019-02-14T00:52:36.024Z,10.90
2019-02-14T00:55:05.028Z,11.07
2019-02-14T00:57:33.725Z,10.50
2019-02-14T01:00:02.565Z,10.00
2019-02-14T01:02:31.300Z,13.23
2019-02-14T01:05:00.043Z,15.33
2019-02-14T01:07:28.764Z,12.47
2019-02-14T01:09:57.494Z,13.63
2019-02-14T01:12:26.491Z,13.07
2019-02-14T01:14:55.243Z,13.63
2019-02-14T01:17:23.964Z,12.50
2019-02-14T01:19:52.704Z,13.33
2019-02-14T01:22:21.488Z,14.57
2019-02-14T01:24:50.280Z,12.40
2019-02-14T01:27:19.005Z,13.97
2019-02-14T01:29:47.727Z,13.20
2019-02-14T01:32:16.485Z,14.03
2019-02-14T01:34:45.201Z,13.50
2019-02-14T01:37:13.946Z,11.67
2019-02-14T01:39:42.640Z,10.97
2019-02-14T01:42:11.349Z,13.30
2019-02-14T01:44:40.091Z,15.67
2019-02-14T01:47:09.098Z,17.83
2019-02-14T01:49:37.844Z,10.00
2019-02-14T01:52:06.640Z,13.47
2019-02-14T01:54:35.714Z,12.17
2019-02-14T01:57:04.528Z,11.80
2019-02-14T01:59:33.212Z,12.97
2019-02-14T02:02:02.103Z,11.17
2019-02-14T02:04:30.892Z,10.93
2019-02-14T02:06:59.609Z,11.40
2019-02-14T02:09:28.374Z,14.57
2019-02-14T02:11:57.123Z,11.10
2019-02-14T02:14:25.844Z,12.23
2019-02-14T02:16:54.601Z,11.63
2019-02-14T02:19:23.312Z,11.23
2019-02-14T02:21:52.090Z,13.33
2019-02-14T02:24:20.795Z,13.67
2019-02-14T02:26:49.609Z,11.23
2019-02-14T02:29:18.353Z,12.07
2019-02-14T02:31:47.075Z,11.50
2019-02-14T02:34:15.825Z,12.87
2019-02-14T02:36:44.563Z,12.63
2019-02-14T02:39:13.342Z,12.50
2019-02-14T02:41:42.061Z,11.80
2019-02-14T02:44:10.778Z,14.27
2019-02-14T02:46:39.514Z,12.73
2019-02-14T02:49:08.236Z,16.47
2019-02-14T02:51:36.979Z,12.80
2019-02-14T02:54:05.691Z,12.00
2019-02-14T02:56:34.397Z,13.77
2019-02-14T02:59:03.153Z,11.80
2019-02-14T03:01:31.892Z,11.37
2019-02-14T03:04:00.635Z,12.13
2019-02-14T03:06:29.411Z,11.67
2019-02-14T03:08:58.123Z,13.00
2019-02-14T03:11:27.149Z,14.43
2019-02-14T03:13:55.898Z,12.00
2019-02-14T03:16:24.682Z,10.83
2019-02-14T03:18:53.425Z,13.53
2019-02-14T03:21:22.198Z,14.40
2019-02-14T03:23:50.963Z,15.07
2019-02-14T03:26:19.693Z,18.00
2019-02-14T03:28:48.418Z,14.20
2019-02-14T03:31:17.122Z,12.47
2019-02-14T03:33:45.844Z,14.60
2019-02-14T03:36:19.259Z,13.07
2019-02-14T03:38:44.987Z,11.33
2019-02-14T03:41:13.685Z,12.67
2019-02-14T03:43:42.450Z,11.77
2019-02-14T03:46:11.145Z,13.43
2019-02-14T03:48:39.863Z,13.70
2019-02-14T03:51:08.606Z,12.97
2019-02-14T03:53:37.336Z,14.30
2019-02-14T03:56:06.139Z,12.17
2019-02-14T03:58:34.854Z,13.87
2019-02-14T04:01:04.410Z,15.20
2019-02-14T04:03:33.116Z,11.90
2019-02-14T04:06:01.833Z,11.73
2019-02-14T04:08:30.558Z,11.97
2019-02-14T04:10:59.258Z,13.37
2019-02-14T04:13:29.033Z,13.90
2019-02-14T04:15:57.962Z,14.37
2019-02-14T04:18:26.690Z,13.17
2019-02-14T04:20:55.462Z,11.70
2019-02-14T04:23:24.188Z,12.90
2019-02-14T04:25:52.926Z,10.10
2019-02-14T04:28:21.673Z,12.50
2019-02-14T04:30:50.438Z,11.57
2019-02-14T04:33:19.165Z,12.43
2019-02-14T04:35:47.933Z,13.37
2019-02-14T04:38:16.758Z,15.57
2019-02-14T04:40:45.489Z,12.93
2019-02-14T04:43:14.484Z,15.33
2019-02-14T04:45:43.190Z,12.70
2019-02-14T04:48:11.907Z,14.87
2019-02-14T04:50:40.650Z,11.47
2019-02-14T04:53:09.356Z,12.37
2019-02-14T04:55:39.130Z,11.27
2019-02-14T04:58:07.983Z,12.77
2019-02-14T05:00:36.724Z,18.43
2019-02-14T05:03:05.431Z,12.57
2019-02-14T05:05:34.218Z,11.73
2019-02-14T05:08:02.949Z,13.73
2019-02-14T05:10:31.878Z,14.63
2019-02-14T05:13:00.618Z,13.10
2019-02-14T05:15:29.323Z,15.57
2019-02-14T05:17:58.298Z,14.13
2019-02-14T05:20:27.009Z,13.43
2019-02-14T05:22:55.714Z,13.37
2019-02-14T05:25:24.459Z,12.73
2019-02-14T05:27:53.205Z,15.00
2019-02-14T05:30:22.020Z,11.93
2019-02-14T05:32:50.824Z,14.10
2019-02-14T05:35:19.565Z,15.18
2019-02-14T05:37:48.311Z,12.93
2019-02-14T05:40:17.128Z,12.85
2019-02-14T05:42:45.950Z,13.03
2019-02-14T05:45:14.726Z,11.63
2019-02-14T05:47:43.456Z,12.10
2019-02-14T05:50:12.199Z,11.07
2019-02-14T05:52:40.962Z,10.20
2019-02-14T05:55:10.054Z,13.37
2019-02-14T05:57:38.859Z,10.83
2019-02-14T06:00:08.732Z,12.70
2019-02-14T06:02:37.477Z,12.80
2019-02-14T06:05:06.354Z,10.97
2019-02-14T06:07:35.122Z,14.40
2019-02-14T06:10:03.984Z,12.00
2019-02-14T06:12:32.746Z,11.67
2019-02-14T06:15:01.482Z,11.90
2019-02-14T06:17:30.211Z,14.07
2019-02-14T06:19:58.954Z,12.10
2019-02-14T06:22:27.696Z,12.87
2019-02-14T06:24:56.479Z,10.77
2019-02-14T06:27:25.296Z,13.77
2019-02-14T06:29:54.032Z,13.60
2019-02-14T06:32:22.743Z,13.47
2019-02-14T06:34:51.526Z,18.97
2019-02-14T06:37:20.267Z,15.77
2019-02-14T06:39:48.999Z,13.67
2019-02-14T06:42:17.883Z,14.10
2019-02-14T06:44:46.639Z,13.77
2019-02-14T06:47:15.443Z,19.20
2019-02-14T06:49:44.308Z,16.33
2019-02-14T06:52:13.036Z,14.70
2019-02-14T06:54:41.771Z,16.20
2019-02-14T06:57:11.042Z,17.50
2019-02-14T06:59:39.791Z,12.87
2019-02-14T07:02:08.524Z,13.83
2019-02-14T07:04:37.337Z,15.07
2019-02-14T07:07:06.106Z,13.33
2019-02-14T07:09:34.842Z,12.37
2019-02-14T07:12:03.574Z,14.77
2019-02-14T07:14:32.316Z,14.63
2019-02-14T07:17:01.066Z,14.57
2019-02-14T07:19:29.810Z,14.10
2019-02-14T07:21:58.604Z,13.20
2019-02-14T07:24:27.371Z,14.77
2019-02-14T07:26:56.175Z,11.57
2019-02-14T07:29:24.911Z,13.73
2019-02-14T07:31:53.704Z,12.73
2019-02-14T07:34:22.435Z,14.57
2019-02-14T07:36:51.193Z,13.87
2019-02-14T07:39:19.992Z,12.23
2019-02-14T07:41:48.714Z,16.00
2019-02-14T07:44:17.487Z,13.37
2019-02-14T07:46:46.257Z,13.27
2019-02-14T07:49:14.998Z,12.03
2019-02-14T07:51:43.823Z,12.97
2019-02-14T07:54:12.624Z,11.07
2019-02-14T07:56:41.358Z,13.63
2019-02-14T07:59:10.149Z,14.43
2019-02-14T08:01:38.901Z,11.80
2019-02-14T08:04:07.655Z,12.37
2019-02-14T08:06:36.770Z,16.03
2019-02-14T08:09:05.640Z,12.07
2019-02-14T08:11:34.392Z,14.30
2019-02-14T08:14:03.208Z,12.13
2019-02-14T08:16:31.980Z,15.57
2019-02-14T08:19:00.795Z,13.17
2019-02-14T08:21:29.589Z,13.27
2019-02-14T08:23:58.335Z,16.67
2019-02-14T08:26:28.597Z,12.10
2019-02-14T08:28:57.313Z,15.50
2019-02-14T08:31:26.078Z,15.17
2019-02-14T08:33:54.811Z,11.90
2019-02-14T08:36:23.586Z,17.40
2019-02-14T08:38:52.345Z,11.70
2019-02-14T08:41:21.194Z,13.43
2019-02-14T08:43:49.998Z,12.83
2019-02-14T08:46:19.157Z,14.93
2019-02-14T08:48:48.038Z,14.83
2019-02-14T08:51:16.820Z,16.17
2019-02-14T08:53:45.608Z,13.83
2019-02-14T08:56:14.368Z,17.90
2019-02-14T08:58:43.122Z,15.33
2019-02-14T09:01:11.898Z,16.37
2019-02-14T09:03:40.591Z,15.10
2019-02-14T09:06:09.363Z,13.97
2019-02-14T09:08:38.224Z,16.80
2019-02-14T09:11:06.950Z,18.13
2019-02-14T09:13:35.714Z,15.07
2019-02-14T09:16:04.570Z,18.33
2019-02-14T09:18:33.300Z,16.30
2019-02-14T09:21:02.071Z,17.55
2019-02-14T09:23:30.900Z,17.57
2019-02-14T09:25:59.651Z,16.93
2019-02-14T09:28:28.365Z,14.60
2019-02-14T09:30:57.194Z,19.70
2019-02-14T09:33:25.917Z,13.20
2019-02-14T09:35:54.658Z,15.43
2019-02-14T09:38:23.474Z,14.37
2019-02-14T09:40:52.236Z,14.53
2019-02-14T09:43:29.407Z,18.93
2019-02-14T09:45:51.390Z,13.03
2019-02-14T09:48:20.230Z,13.03
2019-02-14T09:50:48.978Z,11.70
2019-02-14T09:53:18.168Z,14.43
2019-02-14T09:55:46.915Z,13.73
2019-02-14T09:58:15.729Z,12.73
2019-02-14T10:00:44.541Z,17.17
2019-02-14T10:03:13.279Z,13.67
2019-02-14T10:05:42.117Z,12.17
2019-02-14T10:08:13.145Z,17.27
2019-02-14T10:10:41.326Z,13.17
2019-02-14T10:13:10.055Z,11.97
2019-02-14T10:15:38.766Z,13.27
2019-02-14T10:18:07.547Z,17.00
2019-02-14T10:20:36.294Z,11.17
2019-02-14T10:23:05.086Z,12.43
2019-02-14T10:25:33.860Z,10.43
2019-02-14T10:28:02.592Z,16.80
2019-02-14T10:30:31.410Z,11.60
2019-02-14T10:33:00.164Z,15.63
2019-02-14T10:35:28.887Z,11.00
2019-02-14T10:37:57.630Z,17.93
2019-02-14T10:40:26.535Z,11.80
2019-02-14T10:42:55.324Z,12.53
2019-02-14T10:45:24.102Z,12.87
2019-02-14T10:47:52.883Z,10.13
2019-02-14T10:50:21.939Z,10.13
2019-02-14T10:52:50.713Z,11.93
2019-02-14T10:55:19.458Z,10.53
2019-02-14T10:57:48.227Z,12.33
2019-02-14T11:00:18.431Z,10.90
2019-02-14T11:02:47.753Z,10.07
2019-02-14T11:05:16.980Z,9.23
2019-02-14T11:07:45.751Z,12.17
2019-02-14T11:10:14.626Z,9.23
2019-02-14T11:12:43.389Z,9.40
2019-02-14T11:15:12.653Z,10.13
2019-02-14T11:17:41.433Z,7.83
2019-02-14T11:20:11.019Z,8.70
2019-02-14T11:22:39.784Z,9.43
2019-02-14T11:25:10.269Z,9.13
2019-02-14T11:27:38.994Z,12.40
2019-02-14T11:30:08.448Z,8.00
2019-02-14T11:32:37.264Z,8.43
2019-02-14T11:35:06.447Z,7.97
2019-02-14T11:37:35.153Z,10.13
2019-02-14T11:40:04.145Z,6.50
2019-02-14T11:42:32.897Z,9.83
2019-02-14T11:45:04.939Z,7.07
2019-02-14T11:47:33.720Z,4.87
2019-02-14T11:50:02.728Z,7.57
2019-02-14T11:52:31.446Z,8.43
2019-02-14T11:55:00.286Z,6.00
2019-02-14T11:57:29.028Z,6.80
2019-02-14T11:59:57.748Z,6.27
2019-02-14T12:02:26.542Z,7.57
2019-02-14T12:04:55.339Z,5.83
2019-02-14T12:07:24.104Z,7.87
2019-02-14T12:09:53.453Z,7.43
2019-02-14T12:12:23.550Z,5.07
2019-02-14T12:14:53.845Z,4.87
2019-02-14T12:17:23.189Z,7.43
2019-02-14T12:19:52.497Z,4.83
2019-02-14T12:22:21.824Z,4.33
2019-02-14T12:24:51.148Z,5.57
2019-02-14T12:27:21.109Z,5.97
2019-02-14T12:29:50.426Z,4.80
2019-02-14T12:32:19.700Z,4.77
2019-02-14T12:34:49.351Z,4.77
2019-02-14T12:37:18.691Z,4.37
2019-02-14T12:39:48.089Z,4.97
2019-02-14T12:42:17.437Z,5.07
2019-02-14T12:44:46.856Z,4.37
2019-02-14T12:47:16.128Z,5.07
2019-02-14T12:49:45.499Z,4.53
2019-02-14T12:52:14.841Z,5.60
2019-02-14T12:54:44.171Z,4.17
2019-02-14T12:57:13.472Z,2.97
2019-02-14T12:59:42.822Z,3.03
2019-02-14T13:02:12.173Z,5.00
2019-02-14T13:04:41.482Z,4.23
2019-02-14T13:07:10.825Z,3.47
2019-02-14T13:09:40.309Z,5.62
2019-02-14T13:12:09.634Z,3.30
2019-02-14T13:14:39.005Z,4.47
2019-02-14T13:17:08.299Z,3.97
2019-02-14T13:19:37.611Z,3.00
2019-02-14T13:22:06.923Z,4.30
2019-02-14T13:24:36.290Z,3.40
2019-02-14T13:27:05.604Z,3.33
2019-02-14T13:29:34.959Z,6.60
2019-02-14T13:32:04.363Z,2.43
2019-02-14T13:34:33.668Z,3.10
2019-02-14T13:37:03.026Z,3.13
2019-02-14T13:39:32.802Z,3.60
2019-02-14T13:42:02.269Z,4.17
2019-02-14T13:44:31.742Z,3.87
2019-02-14T13:47:01.114Z,4.43
2019-02-14T13:49:32.582Z,3.20
2019-02-14T13:52:01.480Z,2.63
2019-02-14T13:54:30.856Z,2.50
2019-02-14T13:57:00.135Z,3.33
2019-02-14T13:59:29.472Z,3.47
2019-02-14T14:01:58.801Z,5.00
2019-02-14T14:04:28.206Z,3.77
2019-02-14T14:06:57.634Z,6.07
2019-02-14T14:09:26.984Z,2.60
2019-02-14T14:11:56.288Z,4.37
2019-02-14T14:14:25.615Z,2.50
2019-02-14T14:16:54.968Z,2.70
2019-02-14T14:19:24.273Z,1.97
2019-02-14T14:21:53.658Z,2.53
2019-02-14T14:24:23.051Z,3.00
2019-02-14T14:26:52.456Z,1.70
2019-02-14T14:29:21.792Z,2.57
2019-02-14T14:31:51.140Z,2.50
2019-02-14T14:34:20.504Z,3.33
2019-02-14T14:36:49.774Z,1.83
2019-02-14T14:39:19.594Z,2.80
2019-02-14T14:41:48.942Z,2.13
2019-02-14T14:44:27.339Z,2.80
2019-02-14T14:47:15.374Z,1.90
2019-02-14T14:49:44.705Z,3.50
2019-02-14T14:52:14.027Z,2.87
2019-02-14T14:54:43.646Z,2.03
2019-02-14T14:57:12.939Z,2.13
2019-02-14T14:59:42.282Z,3.27
2019-02-14T15:02:11.625Z,2.47
2019-02-14T15:04:41.846Z,2.50
2019-02-14T15:07:11.194Z,1.80
2019-02-14T15:09:40.532Z,3.17
2019-02-14T15:12:09.863Z,5.13
2019-02-14T15:14:39.197Z,5.27
2019-02-14T15:17:08.508Z,2.97
2019-02-14T15:19:37.829Z,2.27
2019-02-14T15:22:07.140Z,6.57
2019-02-14T15:24:36.435Z,2.83
2019-02-14T15:27:05.791Z,2.83
2019-02-14T15:29:35.263Z,5.07
2019-02-14T15:32:04.553Z,2.97
2019-02-14T15:34:33.931Z,2.27
2019-02-14T15:37:03.226Z,3.73
2019-02-14T15:39:32.647Z,4.10
2019-02-14T15:42:01.961Z,3.13
2019-02-14T15:44:31.387Z,3.10
2019-02-14T15:47:00.713Z,2.93
2019-02-14T15:49:30.124Z,3.27
2019-02-14T15:51:59.487Z,2.73
2019-02-14T15:54:30.929Z,3.17
2019-02-14T15:56:59.874Z,2.77
2019-02-14T15:59:29.239Z,2.50
2019-02-14T16:01:58.947Z,5.00
2019-02-14T16:04:28.920Z,4.67
2019-02-14T16:06:59.249Z,2.83
2019-02-14T16:09:28.566Z,3.00
2019-02-14T16:11:58.038Z,4.93
2019-02-14T16:14:27.304Z,3.97
2019-02-14T16:16:56.693Z,3.33
2019-02-14T16:19:26.040Z,4.20
2019-02-14T16:21:56.097Z,2.62
2019-02-14T16:24:25.509Z,2.37
2019-02-14T16:26:54.860Z,4.20
2019-02-14T16:29:25.094Z,3.53
2019-02-14T16:31:55.318Z,4.40
2019-02-14T16:34:24.926Z,2.53
2019-02-14T16:36:54.319Z,7.73
2019-02-14T16:39:25.563Z,4.80
2019-02-14T16:41:54.710Z,4.47
2019-02-14T16:44:24.020Z,3.53
2019-02-14T16:46:53.369Z,3.30
2019-02-14T16:49:22.709Z,3.50
2019-02-14T16:51:52.066Z,4.20
2019-02-14T16:54:21.441Z,4.10
2019-02-14T16:56:50.767Z,2.87
2019-02-14T16:59:20.165Z,3.20
2019-02-14T17:01:49.515Z,3.87
2019-02-14T17:04:19.001Z,2.80
2019-02-14T17:06:48.282Z,3.17
2019-02-14T17:09:17.578Z,3.77
2019-02-14T17:11:47.263Z,3.40
2019-02-14T17:14:16.625Z,4.23
2019-02-14T17:16:45.991Z,5.73
2019-02-14T17:19:15.344Z,7.27
2019-02-14T17:21:44.688Z,12.73
2019-02-14T17:24:13.995Z,6.63
2019-02-14T17:26:43.417Z,4.77
2019-02-14T17:29:12.780Z,4.03
2019-02-14T17:31:42.076Z,6.60
2019-02-14T17:34:11.449Z,4.17
2019-02-14T17:36:42.056Z,4.17
2019-02-14T17:39:11.728Z,6.73
2019-02-14T17:41:41.087Z,4.13
2019-02-14T17:44:10.390Z,5.43
2019-02-14T17:46:40.044Z,4.53
2019-02-14T17:49:09.485Z,3.20
2019-02-14T17:51:38.878Z,4.77
2019-02-14T17:54:08.246Z,5.00
2019-02-14T17:56:40.347Z,5.17
2019-02-14T17:59:09.667Z,4.33
2019-02-14T18:01:38.944Z,5.13
2019-02-14T18:04:08.374Z,4.20
2019-02-14T18:06:38.094Z,4.70
2019-02-14T18:09:07.742Z,5.20
2019-02-14T18:11:37.151Z,4.90
2019-02-14T18:14:06.495Z,4.50
2019-02-14T18:16:35.811Z,5.70
2019-02-14T18:19:08.115Z,6.17
2019-02-14T18:21:37.491Z,5.73
2019-02-14T18:24:06.844Z,6.42
2019-02-14T18:26:36.192Z,5.10
2019-02-14T18:29:06.014Z,6.23
2019-02-14T18:31:36.323Z,5.73
2019-02-14T18:34:10.398Z,5.03
2019-02-14T18:36:39.939Z,6.33
2019-02-14T18:39:09.445Z,7.87
2019-02-14T18:41:38.922Z,6.50
2019-02-14T18:44:08.359Z,7.53
2019-02-14T18:46:37.801Z,7.70
2019-02-14T18:49:07.246Z,6.33
2019-02-14T18:51:36.622Z,4.90
2019-02-14T18:54:06.007Z,7.40
2019-02-14T18:56:35.380Z,5.73
2019-02-14T18:59:04.800Z,6.50
2019-02-14T19:01:34.251Z,6.23
2019-02-14T19:04:03.678Z,6.63
2019-02-14T19:06:33.041Z,7.70
2019-02-14T19:09:02.537Z,5.57
2019-02-14T19:11:31.884Z,6.03
2019-02-14T19:14:01.212Z,7.57
2019-02-14T19:16:30.653Z,6.90
2019-02-14T19:19:00.090Z,11.20
2019-02-14T19:21:31.991Z,9.77
2019-02-14T19:24:02.136Z,9.47
2019-02-14T19:26:32.668Z,8.70
2019-02-14T19:29:02.275Z,9.37
2019-02-14T19:31:37.005Z,10.53
2019-02-14T19:34:06.442Z,7.80
2019-02-14T19:36:40.829Z,7.93
2019-02-14T19:39:10.201Z,9.68
2019-02-14T19:41:39.681Z,7.47
2019-02-14T19:44:19.416Z,9.60
2019-02-14T19:46:50.037Z,9.13
2019-02-14T19:49:19.624Z,8.43
2019-02-14T19:51:48.965Z,12.53
2019-02-14T19:54:18.450Z,11.97
2019-02-14T19:56:47.780Z,9.60
2019-02-14T20:01:52.712Z,9.40
2019-02-14T20:04:22.062Z,8.37
2019-02-14T20:06:51.801Z,7.40
2019-02-14T20:09:21.306Z,10.57
2019-02-14T20:11:50.620Z,7.73
2019-02-14T20:14:19.960Z,10.53
2019-02-14T20:16:49.422Z,9.83
2019-02-14T20:19:19.110Z,9.50
2019-02-14T20:21:48.548Z,9.07
2019-02-14T20:24:19.800Z,9.00
2019-02-14T20:26:49.276Z,14.77
2019-02-14T20:29:18.656Z,14.33
2019-02-14T20:31:48.003Z,12.97
2019-02-14T20:34:17.361Z,13.87
2019-02-14T20:36:46.688Z,12.37
2019-02-14T20:39:16.095Z,13.37
2019-02-14T20:41:46.602Z,16.60
2019-02-14T20:44:16.374Z,15.67
2019-02-14T20:46:45.857Z,13.43
2019-02-14T20:49:15.212Z,16.67
2019-02-14T20:51:45.415Z,17.80
2019-02-14T20:54:14.839Z,14.73
2019-02-14T20:56:44.174Z,12.33
2019-02-14T20:59:13.602Z,13.77
2019-02-14T21:01:42.964Z,13.17
2019-02-14T21:04:12.648Z,21.20
2019-02-14T21:06:42.059Z,11.70
2019-02-14T21:09:11.384Z,12.17
2019-02-14T21:11:40.769Z,16.77
2019-02-14T21:14:10.134Z,15.90
2019-02-14T21:16:39.514Z,12.27
2019-02-14T21:19:11.382Z,13.47
2019-02-14T21:21:40.748Z,13.60
2019-02-14T21:24:10.441Z,11.83
2019-02-14T21:26:39.834Z,12.03
2019-02-14T21:29:09.242Z,8.60
2019-02-14T21:31:38.609Z,11.93
2019-02-14T21:34:07.980Z,10.00
2019-02-14T21:36:37.347Z,13.90
2019-02-14T21:39:07.477Z,12.10
2019-02-14T21:41:37.999Z,12.17
2019-02-14T21:44:07.453Z,9.53
2019-02-14T21:46:36.878Z,12.13
2019-02-14T21:49:06.220Z,11.67
2019-02-14T21:51:35.517Z,10.93
2019-02-14T21:54:04.945Z,15.70
2019-02-14T21:56:34.255Z,10.27
2019-02-14T21:59:03.875Z,10.90
2019-02-14T22:01:33.179Z,9.87
2019-02-14T22:04:02.537Z,10.93
2019-02-14T22:06:34.753Z,9.50
2019-02-14T22:09:05.284Z,10.23
2019-02-14T22:11:35.078Z,10.37
2019-02-14T22:14:05.169Z,12.10
2019-02-14T22:16:34.483Z,14.93
2019-02-14T22:19:03.859Z,10.03
2019-02-14T22:21:33.193Z,11.00
2019-02-14T22:24:02.543Z,9.13
2019-02-14T22:26:33.647Z,13.13
2019-02-14T22:29:04.448Z,14.50
2019-02-14T22:31:35.183Z,9.77
2019-02-14T22:34:04.690Z,12.60
2019-02-14T22:36:34.106Z,12.47
2019-02-14T22:39:04.734Z,9.33
2019-02-14T22:41:34.087Z,9.70
2019-02-14T22:44:03.424Z,10.33
2019-02-14T22:46:32.761Z,13.00
2019-02-14T22:49:02.440Z,11.40
2019-02-14T22:51:31.767Z,10.97
2019-02-14T22:54:01.074Z,10.93
2019-02-14T22:56:30.377Z,12.50
2019-02-14T22:59:00.064Z,11.23
2019-02-14T23:01:29.466Z,11.57
2019-02-14T23:03:58.838Z,8.67
2019-02-14T23:06:29.081Z,10.13
2019-02-14T23:08:58.430Z,12.63
2019-02-14T23:11:28.593Z,13.27
2019-02-14T23:13:57.897Z,12.10
2019-02-14T23:16:27.215Z,15.37
2019-02-14T23:18:56.487Z,10.63
2019-02-14T23:21:25.772Z,11.20
2019-02-14T23:23:55.063Z,8.30
2019-02-14T23:26:24.376Z,12.17
2019-02-14T23:28:53.714Z,10.33
2019-02-14T23:31:23.017Z,9.77
2019-02-14T23:33:52.342Z,9.40
2019-02-14T23:36:21.643Z,10.87
2019-02-14T23:38:51.025Z,8.83
2019-02-14T23:41:20.322Z,9.87
2019-02-14T23:43:49.604Z,11.37
2019-02-14T23:46:18.886Z,10.43
2019-02-14T23:48:48.129Z,8.97
2019-02-14T23:51:17.494Z,11.33
2019-02-14T23:53:46.757Z,11.23
2019-02-14T23:56:16.088Z,10.37
2019-02-14T23:58:45.378Z,8.20
